Terminal Aerodrome Forecast
Issued by NWS

Home | Current Version | Previous Version | Text Only | Print | Product List | Glossary On
Versions: 1 2 3 4 5 6 7 8 9 10 11 12 13 14
000
FTUS46 KMTR 221700
TAFSNS
TAF
KSNS 221729Z 2218/2318 VRB04KT P6SM SCT250
     FM222000 28010KT P6SM FEW250
     FM230300 30004KT P6SM SCT250
     FM231000 VRB03KT P6SM BKN012=

USA.gov is the U.S. government's official web portal to all federal, state and local government web resources and services.